Time;durP1;ratioP1;P1;durP2;ratioP2;P2;SDS_P1;SDS_P2;PMS_P1;PMS_P2;Temp;Humidity;BMP_temperature;BMP_pressure;BME280_temperature;BME280_humidity;BME280_pressure;Samples;Min_cycle;Max_cycle;Signal;HPM_P1;HPM_P2
2023/04/13 00:00:24;;;;;;;3.25;1.40;;;;;;;5.98;100.00;99350.09;5016720;28;20022;-61
2023/04/13 00:02:52;;;;;;;2.95;1.60;;;;;;;5.94;100.00;99343.50;5025435;28;20076;-61
2023/04/13 00:05:18;;;;;;;2.90;1.67;;;;;;;5.98;100.00;99344.66;5022921;28;20756;-61
2023/04/13 00:07:44;;;;;;;2.30;1.50;;;;;;;5.94;100.00;99348.94;5032948;28;20033;-62
2023/04/13 00:10:10;;;;;;;2.78;1.63;;;;;;;5.87;100.00;99332.66;5028820;28;20022;-61
2023/04/13 00:12:36;;;;;;;2.05;1.60;;;;;;;5.95;100.00;99337.78;5026761;28;20032;-62
2023/04/13 00:15:05;;;;;;;3.33;1.60;;;;;;;5.91;100.00;99335.75;5021529;28;20033;-61
2023/04/13 00:17:32;;;;;;;2.58;1.42;;;;;;;5.97;100.00;99334.81;5027846;28;20088;-61
2023/04/13 00:19:58;;;;;;;4.75;2.25;;;;;;;5.91;100.00;99333.03;5027570;28;20029;-61
2023/04/13 00:22:29;;;;;;;3.55;1.70;;;;;;;5.96;100.00;99327.72;5023125;28;20110;-61
2023/04/13 00:24:54;;;;;;;4.28;1.77;;;;;;;5.99;100.00;99332.72;5026785;28;20030;-61
2023/04/13 00:27:21;;;;;;;3.45;1.70;;;;;;;6.06;100.00;99338.03;5024581;28;20029;-61
2023/04/13 00:29:47;;;;;;;3.75;1.75;;;;;;;6.04;100.00;99332.00;5024132;28;20118;-61
2023/04/13 00:32:12;;;;;;;2.95;1.60;;;;;;;6.13;100.00;99325.09;5025234;28;20457;-62
2023/04/13 00:34:37;;;;;;;2.60;1.42;;;;;;;6.11;100.00;99313.59;5022726;28;20084;-61
2023/04/13 00:37:03;;;;;;;3.35;1.60;;;;;;;6.18;100.00;99326.06;5022557;28;20083;-61
2023/04/13 00:39:30;;;;;;;2.95;1.58;;;;;;;6.12;100.00;99326.16;5005548;28;20034;-61
2023/04/13 00:42:00;;;;;;;2.35;1.40;;;;;;;6.18;100.00;99331.50;5023222;28;20022;-61
2023/04/13 00:44:27;;;;;;;2.13;1.40;;;;;;;6.20;100.00;99323.06;5003193;28;20520;-61
2023/04/13 00:46:53;;;;;;;2.83;1.58;;;;;;;6.13;100.00;99327.81;5023585;28;20037;-61
2023/04/13 00:49:19;;;;;;;2.03;1.35;;;;;;;6.16;100.00;99328.16;5023586;28;20033;-61
2023/04/13 00:51:45;;;;;;;4.55;1.50;;;;;;;6.18;100.00;99311.56;5023042;28;20026;-62
2023/04/13 00:54:12;;;;;;;2.72;1.48;;;;;;;6.26;100.00;99332.19;5022057;28;20034;-61
2023/04/13 00:56:41;;;;;;;2.40;1.42;;;;;;;6.24;100.00;99325.09;5014772;28;20026;-61
2023/04/13 00:59:07;;;;;;;3.40;1.52;;;;;;;6.26;100.00;99319.38;5024590;28;20124;-61
2023/04/13 01:01:32;;;;;;;3.28;1.50;;;;;;;6.25;100.00;99317.75;5023588;28;20052;-61
2023/04/13 01:03:58;;;;;;;3.45;1.70;;;;;;;6.22;100.00;99318.19;5022709;28;20025;-61
2023/04/13 01:06:32;;;;;;;3.15;1.50;;;;;;;6.24;100.00;99313.34;5028603;28;20029;-61
2023/04/13 01:09:10;;;;;;;3.05;1.50;;;;;;;6.29;100.00;99316.19;5031381;28;20059;-61
2023/04/13 01:11:42;;;;;;;2.03;1.23;;;;;;;6.32;100.00;99318.41;5006245;28;20037;-61
2023/04/13 01:14:29;;;;;;;2.78;1.50;;;;;;;6.36;100.00;99318.78;5021929;28;20052;-61
2023/04/13 01:17:01;;;;;;;2.63;1.42;;;;;;;6.30;100.00;99306.13;5019350;28;20037;-62
2023/04/13 01:19:50;;;;;;;4.43;1.50;;;;;;;6.35;100.00;99307.03;5021364;28;20112;-61
2023/04/13 01:22:19;;;;;;;3.70;1.50;;;;;;;6.29;100.00;99309.91;5025536;28;20037;-61
2023/04/13 01:25:05;;;;;;;2.60;1.50;;;;;;;6.35;100.00;99314.41;5029482;28;20029;-61
2023/04/13 01:27:54;;;;;;;2.40;1.40;;;;;;;6.38;100.00;99313.91;5028321;28;20021;-61
2023/04/13 01:30:21;;;;;;;1.90;1.33;;;;;;;6.33;100.00;99316.53;5028330;28;20036;-61
2023/04/13 01:32:48;;;;;;;5.22;1.60;;;;;;;6.28;100.00;99313.69;5021768;28;20444;-62
2023/04/13 01:35:14;;;;;;;2.30;1.50;;;;;;;6.37;100.00;99306.78;5022944;28;20025;-62
2023/04/13 01:37:43;;;;;;;3.30;1.60;;;;;;;6.27;100.00;99321.03;5004147;28;20041;-61
2023/04/13 01:40:10;;;;;;;3.17;1.70;;;;;;;6.27;100.00;99329.22;5024809;28;20080;-61
2023/04/13 01:42:36;;;;;;;2.72;1.67;;;;;;;6.34;100.00;99340.00;5020772;28;20030;-61
2023/04/13 01:45:04;;;;;;;3.67;1.83;;;;;;;6.26;100.00;99345.81;5026459;28;20030;-61
2023/04/13 01:47:33;;;;;;;3.90;1.65;;;;;;;6.23;100.00;99349.84;5024377;28;20029;-61
2023/04/13 01:50:28;;;;;;;3.72;1.50;;;;;;;6.21;100.00;99357.44;5022600;28;20489;-61
2023/04/13 01:52:57;;;;;;;3.60;1.80;;;;;;;6.21;100.00;99363.72;5016987;28;20044;-61
2023/04/13 01:55:22;;;;;;;3.35;1.52;;;;;;;6.24;100.00;99363.25;5017214;28;20080;-61
2023/04/13 01:57:50;;;;;;;4.20;1.70;;;;;;;6.26;100.00;99364.91;5021702;28;21572;-61
2023/04/13 02:00:17;;;;;;;3.03;1.80;;;;;;;6.30;100.00;99366.91;5018063;28;20029;-61
2023/04/13 02:02:43;;;;;;;3.50;1.70;;;;;;;6.25;100.00;99369.53;5022814;28;20084;-62
2023/04/13 02:05:09;;;;;;;3.72;1.50;;;;;;;6.20;100.00;99377.59;5023884;28;20026;-61
2023/04/13 02:07:38;;;;;;;4.05;1.63;;;;;;;6.22;100.00;99381.72;5022497;28;20491;-61
2023/04/13 02:10:05;;;;;;;4.22;1.77;;;;;;;6.21;100.00;99382.81;5021288;28;20062;-61
2023/04/13 02:12:31;;;;;;;4.63;2.03;;;;;;;6.19;100.00;99387.69;4999010;28;20495;-61
2023/04/13 02:14:57;;;;;;;4.45;1.70;;;;;;;6.26;100.00;99387.53;5022903;28;20100;-61
2023/04/13 02:17:24;;;;;;;3.60;1.90;;;;;;;6.22;100.00;99391.81;5017493;28;20112;-61
2023/04/13 02:19:49;;;;;;;4.22;1.70;;;;;;;6.28;100.00;99390.03;5019522;28;20025;-61
2023/04/13 02:22:15;;;;;;;5.00;1.77;;;;;;;6.22;100.00;99400.81;5020892;28;20021;-62
2023/04/13 02:24:41;;;;;;;3.53;1.55;;;;;;;6.31;100.00;99405.91;5019847;28;20082;-61
2023/04/13 02:27:06;;;;;;;3.90;1.90;;;;;;;6.28;100.00;99414.56;5026735;28;20128;-61
2023/04/13 02:29:31;;;;;;;5.47;2.13;;;;;;;6.30;100.00;99417.91;5028623;28;20548;-61
2023/04/13 02:31:56;;;;;;;4.38;1.95;;;;;;;6.28;100.00;99407.22;5028571;28;20029;-61
2023/04/13 02:34:22;;;;;;;3.92;1.90;;;;;;;6.30;100.00;99410.53;5020401;28;20057;-61
2023/04/13 02:36:47;;;;;;;4.38;2.00;;;;;;;6.30;100.00;99432.34;5024543;28;20051;-61
2023/04/13 02:39:12;;;;;;;4.30;1.92;;;;;;;6.32;100.00;99440.28;5025412;28;20058;-62
2023/04/13 02:41:41;;;;;;;5.20;2.15;;;;;;;6.31;100.00;99450.38;5026743;28;20075;-61
2023/04/13 02:44:07;;;;;;;4.85;1.90;;;;;;;6.33;100.00;99455.56;5101153;22;20056;-61
2023/04/13 02:46:33;;;;;;;3.95;2.05;;;;;;;6.35;100.00;99459.75;5055072;28;20025;-61
2023/04/13 02:48:58;;;;;;;5.95;2.00;;;;;;;6.29;100.00;99468.88;5058339;28;20016;-61
2023/04/13 02:51:23;;;;;;;4.45;2.08;;;;;;;6.31;100.00;99463.19;5054681;28;20140;-61
2023/04/13 02:53:48;;;;;;;5.68;2.15;;;;;;;6.29;100.00;99465.31;5053020;28;20066;-61
2023/04/13 02:56:14;;;;;;;3.10;1.90;;;;;;;6.30;100.00;99461.53;5054689;28;20036;-62
2023/04/13 02:58:40;;;;;;;4.43;2.38;;;;;;;6.26;100.00;99477.50;5058178;28;20508;-61
2023/04/13 03:01:06;;;;;;;4.53;2.30;;;;;;;6.21;100.00;99477.41;5056859;28;20032;-61
2023/04/13 03:03:32;;;;;;;3.35;2.00;;;;;;;6.17;100.00;99474.31;5049888;28;20874;-61
2023/04/13 03:05:57;;;;;;;5.05;2.33;;;;;;;6.19;100.00;99469.47;5048608;28;20029;-61
2023/04/13 03:08:22;;;;;;;2.58;2.08;;;;;;;6.15;100.00;99473.72;5046771;28;20029;-61
2023/04/13 03:10:48;;;;;;;3.95;2.20;;;;;;;6.14;100.00;99474.78;5056777;28;20058;-61
2023/04/13 03:13:13;;;;;;;6.85;2.60;;;;;;;6.15;100.00;99481.06;5065579;28;20378;-62
2023/04/13 03:15:40;;;;;;;3.03;2.08;;;;;;;6.09;100.00;99480.13;5050281;28;20479;-61
2023/04/13 03:18:05;;;;;;;4.88;2.40;;;;;;;6.08;100.00;99488.50;5061013;28;20028;-61
2023/04/13 03:20:30;;;;;;;4.10;2.20;;;;;;;6.07;100.00;99495.03;5067746;28;20463;-61
2023/04/13 03:22:57;;;;;;;5.20;2.20;;;;;;;6.05;100.00;99498.00;5062682;28;20021;-61
2023/04/13 03:25:23;;;;;;;4.32;2.10;;;;;;;6.02;100.00;99501.19;5048598;28;20033;-61
2023/04/13 03:27:48;;;;;;;3.97;2.08;;;;;;;5.98;100.00;99503.56;5048871;28;20028;-61
2023/04/13 03:30:13;;;;;;;4.05;2.10;;;;;;;6.01;100.00;99513.16;5051561;28;20050;-62
2023/04/13 03:32:39;;;;;;;4.03;2.17;;;;;;;6.02;100.00;99525.72;5065023;28;20029;-61
2023/04/13 03:35:04;;;;;;;3.13;1.90;;;;;;;5.99;100.00;99523.47;5046844;28;20077;-61
2023/04/13 03:37:33;;;;;;;4.25;2.38;;;;;;;5.98;100.00;99536.28;5048534;28;20120;-61
2023/04/13 03:39:58;;;;;;;5.72;2.70;;;;;;;5.93;100.00;99535.28;5064016;28;20033;-61
2023/04/13 03:42:24;;;;;;;4.68;2.40;;;;;;;5.93;100.00;99538.00;5068750;28;20029;-61
2023/04/13 03:44:49;;;;;;;4.15;3.38;;;;;;;5.83;100.00;99543.16;5084559;28;20079;-61
2023/04/13 03:47:15;;;;;;;4.13;2.65;;;;;;;5.74;100.00;99537.22;5049407;28;20111;-61
2023/04/13 03:49:40;;;;;;;5.05;2.92;;;;;;;5.72;100.00;99542.88;5067734;28;20158;-60
2023/04/13 03:52:05;;;;;;;5.03;3.42;;;;;;;5.66;100.00;99551.97;5077889;28;20031;-61
2023/04/13 03:54:30;;;;;;;5.35;3.15;;;;;;;5.58;100.00;99552.31;5074030;28;20142;-61
2023/04/13 03:56:57;;;;;;;5.70;3.92;;;;;;;5.56;100.00;99556.31;5072013;28;20020;-61
2023/04/13 03:59:22;;;;;;;5.90;4.20;;;;;;;5.53;100.00;99556.78;5071536;28;20427;-61
2023/04/13 04:01:47;;;;;;;5.68;4.05;;;;;;;5.55;100.00;99558.22;5073939;28;20107;-62
2023/04/13 04:04:13;;;;;;;6.15;3.83;;;;;;;5.59;100.00;99561.31;5098187;28;20358;-62
2023/04/13 04:06:38;;;;;;;6.43;3.92;;;;;;;5.56;100.00;99562.59;5076309;28;20031;-61
2023/04/13 04:09:03;;;;;;;7.10;4.65;;;;;;;5.56;100.00;99568.03;5067994;28;20471;-61
2023/04/13 04:11:29;;;;;;;7.78;4.32;;;;;;;5.61;100.00;99565.47;5067748;28;20039;-61
2023/04/13 04:13:54;;;;;;;6.35;4.32;;;;;;;5.60;100.00;99577.41;5067885;28;20576;-62
2023/04/13 04:16:19;;;;;;;6.10;4.25;;;;;;;5.60;100.00;99580.13;5068038;28;20029;-61
2023/04/13 04:18:44;;;;;;;7.55;4.55;;;;;;;5.58;100.00;99587.72;5080912;28;20028;-61
2023/04/13 04:21:11;;;;;;;9.15;4.57;;;;;;;5.59;100.00;99596.72;5071307;28;20466;-61
2023/04/13 04:23:38;;;;;;;6.85;4.60;;;;;;;5.61;100.00;99592.69;5086738;28;20196;-61
2023/04/13 04:26:04;;;;;;;6.93;4.70;;;;;;;5.63;100.00;99597.94;5080280;28;20024;-62
2023/04/13 04:28:30;;;;;;;8.45;5.38;;;;;;;5.71;100.00;99598.44;5082960;28;20024;-61
2023/04/13 04:31:00;;;;;;;8.95;4.85;;;;;;;5.67;100.00;99602.66;5097097;28;20035;-61
2023/04/13 04:33:25;;;;;;;7.65;4.63;;;;;;;5.65;100.00;99599.34;5081767;28;20036;-61
2023/04/13 04:35:51;;;;;;;7.55;4.57;;;;;;;5.64;100.00;99614.03;5069539;28;20028;-62
2023/04/13 04:38:17;;;;;;;10.07;4.70;;;;;;;5.63;100.00;99615.09;5066559;28;20466;-61
2023/04/13 04:40:44;;;;;;;7.32;4.28;;;;;;;5.60;100.00;99623.72;5067980;28;20032;-62
2023/04/13 04:43:12;;;;;;;6.90;4.10;;;;;;;5.58;100.00;99614.97;5081160;28;20389;-61
2023/04/13 04:45:40;;;;;;;5.88;4.03;;;;;;;5.57;100.00;99628.78;5086993;28;20485;-61
2023/04/13 04:48:06;;;;;;;8.13;4.32;;;;;;;5.57;100.00;99634.22;5085706;28;20027;-61
2023/04/13 04:50:32;;;;;;;7.40;4.53;;;;;;;5.56;100.00;99635.28;5066246;28;20036;-61
2023/04/13 04:52:57;;;;;;;8.15;4.40;;;;;;;5.58;100.00;99635.91;5082849;28;20115;-61
2023/04/13 04:55:23;;;;;;;8.15;4.18;;;;;;;5.55;100.00;99642.63;5085459;28;20077;-61
2023/04/13 04:57:48;;;;;;;7.05;4.13;;;;;;;5.52;100.00;99648.53;5086117;28;20028;-61
2023/04/13 05:00:15;;;;;;;7.40;4.18;;;;;;;5.52;100.00;99640.34;5087277;28;20366;-62
2023/04/13 05:02:41;;;;;;;5.95;3.75;;;;;;;5.52;100.00;99642.25;5082477;28;20036;-61
2023/04/13 05:05:07;;;;;;;7.38;3.80;;;;;;;5.52;100.00;99645.81;5077731;28;20028;-61
2023/04/13 05:07:33;;;;;;;6.93;4.10;;;;;;;5.52;100.00;99653.97;5078365;28;20486;-61
2023/04/13 05:09:58;;;;;;;6.72;4.20;;;;;;;5.59;100.00;99657.47;5093001;28;20039;-64
2023/04/13 05:12:24;;;;;;;7.70;4.30;;;;;;;5.65;100.00;99653.00;5105543;28;20042;-61
2023/04/13 05:14:50;;;;;;;8.13;4.32;;;;;;;5.77;100.00;99653.06;5106500;28;20039;-61
2023/04/13 05:17:18;;;;;;;8.25;4.80;;;;;;;5.87;100.00;99656.06;5100317;28;20032;-62
2023/04/13 05:19:44;;;;;;;6.53;4.75;;;;;;;5.89;100.00;99653.97;5094754;28;20031;-62
2023/04/13 05:22:10;;;;;;;6.80;4.60;;;;;;;5.95;100.00;99653.06;5088316;28;20032;-61
2023/04/13 05:24:36;;;;;;;6.68;4.85;;;;;;;5.98;100.00;99666.22;5106954;28;20028;-61
2023/04/13 05:27:01;;;;;;;7.53;5.03;;;;;;;6.01;100.00;99668.50;5106472;28;20016;-61
2023/04/13 05:29:27;;;;;;;6.55;4.50;;;;;;;6.03;100.00;99671.81;5105609;28;20434;-61
2023/04/13 05:31:52;;;;;;;5.55;4.40;;;;;;;6.04;100.00;99673.50;5085036;28;20063;-61
2023/04/13 05:34:17;;;;;;;7.88;5.25;;;;;;;6.09;100.00;99675.53;5074889;28;20024;-61
2023/04/13 05:36:43;;;;;;;7.00;5.00;;;;;;;6.08;100.00;99680.13;5106504;28;20507;-61
2023/04/13 05:39:09;;;;;;;7.43;5.10;;;;;;;6.13;100.00;99672.13;5106844;28;20111;-61
2023/04/13 05:41:35;;;;;;;5.93;4.60;;;;;;;6.22;100.00;99680.78;5106460;28;20089;-61
2023/04/13 05:44:00;;;;;;;6.57;4.57;;;;;;;6.26;100.00;99675.72;5106302;28;20455;-61
2023/04/13 05:46:26;;;;;;;7.07;4.80;;;;;;;6.37;100.00;99686.66;5086237;28;20089;-61
2023/04/13 05:48:51;;;;;;;6.40;3.92;;;;;;;6.43;100.00;99687.63;5081590;28;20297;-61
2023/04/13 05:51:17;;;;;;;6.57;4.20;;;;;;;6.48;100.00;99693.22;5073820;28;20029;-61
2023/04/13 05:53:42;;;;;;;7.88;4.60;;;;;;;6.52;100.00;99702.59;5063911;28;20025;-62
2023/04/13 05:56:08;;;;;;;5.65;3.67;;;;;;;6.55;100.00;99702.16;5064573;28;20054;-61
2023/04/13 05:58:33;;;;;;;7.15;3.30;;;;;;;6.63;100.00;99712.72;5066515;28;20507;-61
2023/04/13 06:01:00;;;;;;;5.43;3.20;;;;;;;6.71;100.00;99726.03;5068058;28;20036;-61
2023/04/13 06:03:26;;;;;;;6.00;3.47;;;;;;;6.68;100.00;99718.31;5066551;28;20029;-61
2023/04/13 06:05:51;;;;;;;6.10;3.22;;;;;;;6.70;100.00;99724.38;5068188;28;20482;-61
2023/04/13 06:08:17;;;;;;;4.63;2.80;;;;;;;6.62;100.00;99727.44;5067231;28;20025;-61
2023/04/13 06:10:43;;;;;;;5.68;3.17;;;;;;;6.59;100.00;99732.50;5067611;28;20033;-62
2023/04/13 06:13:09;;;;;;;4.22;2.88;;;;;;;6.55;100.00;99743.06;5068474;28;20029;-61
2023/04/13 06:15:35;;;;;;;5.38;3.15;;;;;;;6.52;100.00;99745.41;5067805;28;20036;-61
2023/04/13 06:18:01;;;;;;;6.38;3.33;;;;;;;6.53;100.00;99755.25;5079553;28;20107;-61
2023/04/13 06:20:27;;;;;;;4.50;2.50;;;;;;;6.60;100.00;99756.03;5086715;28;20118;-60
2023/04/13 06:22:52;;;;;;;5.45;2.65;;;;;;;6.55;100.00;99762.16;5087693;28;20119;-61
2023/04/13 06:25:17;;;;;;;5.60;2.83;;;;;;;6.61;100.00;99766.69;5087370;28;20039;-61
2023/04/13 06:27:43;;;;;;;5.43;3.10;;;;;;;6.63;100.00;99761.00;5087850;28;20074;-62
2023/04/13 06:30:09;;;;;;;3.47;2.45;;;;;;;6.72;100.00;99774.09;5088465;28;20374;-61
2023/04/13 06:32:35;;;;;;;4.22;2.63;;;;;;;6.79;100.00;99767.69;5087133;28;20036;-61
2023/04/13 06:35:00;;;;;;;6.15;2.90;;;;;;;6.80;100.00;99774.84;5087260;28;20022;-60
2023/04/13 06:37:26;;;;;;;3.55;2.70;;;;;;;6.78;100.00;99779.69;5086924;28;20042;-61
2023/04/13 06:39:52;;;;;;;6.00;2.83;;;;;;;6.72;100.00;99784.16;5087798;28;20024;-62
2023/04/13 06:42:17;;;;;;;5.85;3.35;;;;;;;6.75;100.00;99783.72;5086938;28;20050;-62
2023/04/13 06:44:43;;;;;;;6.03;3.15;;;;;;;6.67;100.00;99782.13;5087358;28;20051;-62
2023/04/13 06:47:08;;;;;;;4.82;3.15;;;;;;;6.71;100.00;99787.97;5087857;28;20054;-60
2023/04/13 06:49:33;;;;;;;6.22;3.47;;;;;;;6.72;100.00;99795.09;5085953;28;20044;-61
2023/04/13 06:51:58;;;;;;;5.40;3.50;;;;;;;6.74;100.00;99792.94;5087546;28;20319;-61
2023/04/13 06:54:24;;;;;;;6.85;3.75;;;;;;;6.76;100.00;99791.66;5086565;28;20024;-61
2023/04/13 06:56:49;;;;;;;6.03;3.58;;;;;;;6.82;100.00;99806.28;5087096;28;20020;-62
2023/04/13 06:59:14;;;;;;;6.25;3.10;;;;;;;6.80;100.00;99805.69;5086911;28;20430;-60
2023/04/13 07:01:40;;;;;;;5.10;3.40;;;;;;;6.84;100.00;99801.41;5087535;28;20450;-61
2023/04/13 07:04:06;;;;;;;6.90;4.55;;;;;;;6.86;100.00;99804.75;5085996;28;20020;-61
2023/04/13 07:06:32;;;;;;;5.90;3.55;;;;;;;6.88;100.00;99816.25;5069001;28;20027;-61
2023/04/13 07:08:57;;;;;;;5.00;2.83;;;;;;;6.94;100.00;99825.41;5086324;28;20579;-61
2023/04/13 07:11:25;;;;;;;8.68;3.33;;;;;;;6.90;100.00;99822.34;5086584;28;20455;-61
2023/04/13 07:13:50;;;;;;;4.97;2.90;;;;;;;6.93;100.00;99821.84;5086861;28;20530;-60
2023/04/13 07:16:15;;;;;;;4.82;2.78;;;;;;;6.95;100.00;99832.56;5087059;28;20032;-61
2023/04/13 07:18:41;;;;;;;6.75;2.70;;;;;;;6.99;100.00;99844.66;5086702;28;20437;-61
2023/04/13 07:21:06;;;;;;;5.40;2.70;;;;;;;7.01;100.00;99843.38;5086625;28;20024;-61
2023/04/13 07:23:32;;;;;;;5.53;2.90;;;;;;;7.11;100.00;99844.72;5086112;28;20364;-61
2023/04/13 07:25:57;;;;;;;5.20;2.40;;;;;;;7.20;100.00;99852.34;5086597;28;20030;-61
2023/04/13 07:28:23;;;;;;;7.22;3.17;;;;;;;7.31;100.00;99844.41;5085997;28;20032;-61
2023/04/13 07:30:48;;;;;;;5.47;2.90;;;;;;;7.40;100.00;99857.50;5086811;28;20028;-61
2023/04/13 07:33:13;;;;;;;7.38;3.22;;;;;;;7.49;100.00;99867.00;5085531;28;20108;-61
2023/04/13 07:35:39;;;;;;;5.93;2.75;;;;;;;7.61;100.00;99863.50;5086784;28;20031;-61
2023/04/13 07:38:05;;;;;;;6.97;2.90;;;;;;;7.70;100.00;99860.13;5086300;28;20111;-61
2023/04/13 07:40:30;;;;;;;7.07;2.70;;;;;;;7.84;100.00;99868.13;5086189;28;20375;-60
2023/04/13 07:42:56;;;;;;;5.22;2.53;;;;;;;7.84;100.00;99879.06;5085660;28;20048;-61
2023/04/13 07:45:21;;;;;;;7.38;3.00;;;;;;;7.85;100.00;99897.94;5086104;28;20095;-60
2023/04/13 07:47:47;;;;;;;6.50;3.00;;;;;;;7.87;100.00;99889.53;5086522;28;20036;-60
2023/04/13 07:50:13;;;;;;;7.10;2.60;;;;;;;7.96;100.00;99893.59;5085282;28;20031;-61
2023/04/13 07:52:38;;;;;;;6.82;2.90;;;;;;;8.06;100.00;99899.31;5073106;28;20488;-61
2023/04/13 07:55:05;;;;;;;6.07;2.67;;;;;;;8.18;100.00;99897.38;5095352;28;20039;-61
2023/04/13 07:57:30;;;;;;;8.18;3.38;;;;;;;8.29;100.00;99904.75;5095875;28;20078;-61
2023/04/13 07:59:55;;;;;;;7.85;2.80;;;;;;;8.42;100.00;99900.97;5097739;28;20087;-61
2023/04/13 08:02:21;;;;;;;8.05;2.90;;;;;;;8.38;100.00;99902.53;5107706;28;20677;-61
2023/04/13 08:04:47;;;;;;;5.20;2.95;;;;;;;8.40;100.00;99915.94;5107387;28;20051;-61
2023/04/13 08:07:12;;;;;;;7.93;2.45;;;;;;;8.49;100.00;99915.34;5107453;28;20032;-62
2023/04/13 08:09:39;;;;;;;8.63;2.65;;;;;;;8.63;100.00;99915.09;5108036;28;20028;-61
2023/04/13 08:12:05;;;;;;;8.02;2.38;;;;;;;8.78;100.00;99918.16;5108008;28;20046;-61
2023/04/13 08:14:30;;;;;;;6.57;2.83;;;;;;;8.96;100.00;99925.38;5096796;28;20028;-61
2023/04/13 08:16:56;;;;;;;6.35;2.47;;;;;;;9.17;99.96;99932.06;5069596;28;20024;-61
2023/04/13 08:19:21;;;;;;;6.85;2.58;;;;;;;9.17;98.35;99938.38;5065982;28;20032;-61
2023/04/13 08:21:47;;;;;;;8.52;2.50;;;;;;;9.07;98.50;99940.91;5068396;28;20363;-61
2023/04/13 08:24:12;;;;;;;6.10;2.70;;;;;;;8.98;100.00;99942.41;5065452;28;20146;-61
2023/04/13 08:26:38;;;;;;;8.45;2.83;;;;;;;8.92;98.96;99944.22;5065576;28;20039;-61
2023/04/13 08:29:03;;;;;;;6.55;2.28;;;;;;;8.89;98.19;99947.41;5065423;28;20024;-61
2023/04/13 08:31:29;;;;;;;7.18;2.67;;;;;;;8.93;97.08;99950.50;5064653;28;20598;-61
2023/04/13 08:33:54;;;;;;;5.88;1.77;;;;;;;8.86;95.67;99955.28;5064408;28;20486;-60
2023/04/13 08:36:19;;;;;;;10.00;2.70;;;;;;;8.73;97.43;99968.16;5047229;28;20052;-61
2023/04/13 08:38:45;;;;;;;8.80;3.03;;;;;;;8.85;95.63;99973.63;5064264;28;20374;-61
2023/04/13 08:41:11;;;;;;;7.70;2.55;;;;;;;8.80;96.31;99988.03;5065694;28;20084;-61
2023/04/13 08:43:37;;;;;;;8.27;2.53;;;;;;;8.89;95.93;99979.44;5064405;28;20530;-60
2023/04/13 08:46:04;;;;;;;7.70;2.60;;;;;;;9.03;95.77;99976.22;5064762;28;20036;-61
2023/04/13 08:48:32;;;;;;;7.78;2.40;;;;;;;9.25;94.68;99981.84;5063750;28;20119;-61
2023/04/13 08:50:59;;;;;;;6.28;2.20;;;;;;;9.44;94.62;99987.16;5065056;28;20395;-61
2023/04/13 08:53:24;;;;;;;6.80;2.55;;;;;;;9.77;94.07;99991.88;5063771;28;20025;-61
2023/04/13 08:55:51;;;;;;;6.05;2.40;;;;;;;9.97;91.23;100003.22;5064703;28;20035;-61
2023/04/13 08:58:22;;;;;;;9.82;2.63;;;;;;;10.11;89.08;100003.72;5064442;28;20055;-60
2023/04/13 09:00:48;;;;;;;7.47;2.40;;;;;;;10.43;86.54;100000.44;5064599;28;20027;-61
2023/04/13 09:03:22;;;;;;;6.85;2.92;;;;;;;10.59;85.60;100002.31;5063310;28;20036;-61
2023/04/13 09:05:55;;;;;;;7.00;2.10;;;;;;;11.00;83.45;100012.00;5064509;28;20480;-61
2023/04/13 09:08:21;;;;;;;7.78;2.20;;;;;;;10.95;81.13;100008.34;5063946;28;20438;-60
2023/04/13 09:10:47;;;;;;;7.80;2.60;;;;;;;11.06;81.92;100005.50;5064313;28;20028;-61
2023/04/13 09:13:12;;;;;;;6.80;2.47;;;;;;;11.80;80.31;100018.72;5064274;28;20078;-62
2023/04/13 09:15:37;;;;;;;7.30;2.35;;;;;;;12.28;77.09;100016.19;5064311;28;20474;-61
2023/04/13 09:18:08;;;;;;;7.22;2.40;;;;;;;12.31;76.29;100016.47;5076061;28;20114;-61
2023/04/13 09:20:33;;;;;;;7.18;2.05;;;;;;;11.92;75.56;100030.47;5084264;28;20028;-61
2023/04/13 09:22:59;;;;;;;8.95;2.63;;;;;;;11.42;78.27;100026.00;5083580;28;20417;-61
2023/04/13 09:25:26;;;;;;;7.95;1.95;;;;;;;11.38;79.78;100030.34;5084228;28;20024;-61
2023/04/13 09:27:52;;;;;;;6.95;1.98;;;;;;;11.39;78.98;100036.69;5084698;28;20103;-61
2023/04/13 09:30:19;;;;;;;8.38;2.22;;;;;;;11.21;79.92;100040.59;5085534;28;20028;-61
2023/04/13 09:32:44;;;;;;;6.03;1.88;;;;;;;10.94;78.65;100036.91;5085680;28;20038;-63
2023/04/13 09:35:10;;;;;;;8.43;2.35;;;;;;;10.67;79.43;100054.09;5086733;28;20028;-61
2023/04/13 09:37:40;;;;;;;9.88;2.45;;;;;;;10.38;82.16;100058.81;5085728;28;20035;-61
2023/04/13 09:40:17;;;;;;;6.00;2.40;;;;;;;10.30;83.98;100062.00;5086716;28;20379;-61
2023/04/13 09:42:57;;;;;;;6.40;1.98;;;;;;;10.32;81.61;100070.81;5086184;28;20030;-61
2023/04/13 09:45:23;;;;;;;7.15;2.00;;;;;;;10.29;83.94;100083.13;5086491;28;20394;-61
2023/04/13 09:47:48;;;;;;;7.97;2.70;;;;;;;10.41;80.03;100084.97;5085730;28;20024;-61
2023/04/13 09:50:17;;;;;;;8.35;2.28;;;;;;;10.50;80.18;100088.97;5085816;28;20043;-61
2023/04/13 09:52:44;;;;;;;6.05;1.95;;;;;;;10.76;80.32;100082.81;5085948;28;20086;-61
2023/04/13 09:55:17;;;;;;;7.75;2.22;;;;;;;11.56;76.80;100091.63;5086702;28;20063;-61
2023/04/13 09:57:42;;;;;;;5.55;1.77;;;;;;;11.75;75.61;100089.38;5085648;28;20138;-61
2023/04/13 10:00:15;;;;;;;6.38;2.00;;;;;;;11.55;75.28;100101.78;5066776;28;20111;-61
2023/04/13 10:02:41;;;;;;;6.60;1.70;;;;;;;10.93;76.02;100107.50;5085744;28;20405;-61
2023/04/13 10:05:10;;;;;;;5.20;1.88;;;;;;;10.61;78.67;100121.81;5086513;28;20028;-61
2023/04/13 10:07:36;;;;;;;9.40;2.40;;;;;;;10.20;80.91;100128.47;5085856;28;20103;-61
2023/04/13 10:10:03;;;;;;;6.28;2.00;;;;;;;10.01;83.55;100118.78;5085806;28;20366;-60
2023/04/13 10:12:30;;;;;;;7.07;2.08;;;;;;;10.13;84.10;100131.34;5085551;28;20024;-61
2023/04/13 10:15:11;;;;;;;9.88;2.42;;;;;;;10.38;81.68;100142.00;5086267;28;20024;-60
2023/04/13 10:17:57;;;;;;;7.63;2.08;;;;;;;10.34;79.83;100135.38;5084263;28;20020;-61
2023/04/13 10:20:23;;;;;;;7.55;2.08;;;;;;;10.30;82.05;100147.91;5086027;28;20444;-61
2023/04/13 10:22:50;;;;;;;5.55;1.95;;;;;;;10.31;80.58;100148.75;5072696;28;20027;-61
2023/04/13 10:25:15;;;;;;;4.03;1.65;;;;;;;10.36;79.41;100159.81;5065441;28;20012;-61
2023/04/13 10:27:41;;;;;;;7.30;2.05;;;;;;;10.51;78.24;100154.59;5066227;28;20025;-61
2023/04/13 10:30:14;;;;;;;6.50;1.92;;;;;;;10.80;78.86;100158.13;5065659;28;20184;-62
2023/04/13 10:32:41;;;;;;;6.30;1.75;;;;;;;10.86;78.02;100159.03;5064816;28;20406;-61
2023/04/13 10:35:11;;;;;;;7.00;1.83;;;;;;;11.04;77.54;100163.44;5065899;28;20024;-61
2023/04/13 10:37:38;;;;;;;7.95;2.40;;;;;;;10.90;76.42;100169.28;5064581;28;20020;-60
2023/04/13 10:40:09;;;;;;;7.68;2.15;;;;;;;10.61;77.12;100178.66;5065304;28;20025;-62
2023/04/13 10:42:46;;;;;;;8.95;2.50;;;;;;;10.37;79.18;100191.66;5065259;28;20119;-61
2023/04/13 10:45:24;;;;;;;7.57;2.45;;;;;;;10.32;80.49;100197.06;5069763;28;20024;-61
2023/04/13 10:47:51;;;;;;;7.50;2.28;;;;;;;10.37;78.55;100194.41;5067749;28;20024;-61
2023/04/13 10:50:18;;;;;;;8.13;2.40;;;;;;;10.41;78.71;100201.09;5068871;28;20035;-61
2023/04/13 10:53:06;;;;;;;8.05;2.47;;;;;;;10.65;79.16;100201.81;5068664;28;20025;-61
2023/04/13 10:55:33;;;;;;;7.72;2.80;;;;;;;10.44;79.88;100210.72;5068860;28;20413;-61
2023/04/13 10:58:00;;;;;;;5.75;2.33;;;;;;;10.37;79.75;100205.41;5069463;28;20414;-61
2023/04/13 11:00:28;;;;;;;7.20;2.15;;;;;;;10.34;78.24;100209.47;5069015;28;20028;-61
2023/04/13 11:02:56;;;;;;;7.35;1.92;;;;;;;10.31;78.37;100217.34;5067195;28;20036;-61
2023/04/13 11:05:21;;;;;;;7.43;2.38;;;;;;;10.30;79.12;100226.69;5068860;28;20032;-61
2023/04/13 11:07:48;;;;;;;6.15;1.90;;;;;;;10.23;78.17;100231.41;5068303;28;20082;-62
2023/04/13 11:10:15;;;;;;;7.43;2.63;;;;;;;10.25;79.09;100234.81;5068122;28;20016;-62
2023/04/13 11:12:51;;;;;;;5.97;1.80;;;;;;;10.34;78.20;100236.94;5050437;28;20069;-61
2023/04/13 11:15:25;;;;;;;6.85;1.65;;;;;;;10.59;75.56;100241.22;5067511;28;20103;-62
2023/04/13 11:17:56;;;;;;;6.45;2.17;;;;;;;10.64;75.96;100227.59;5078101;28;20067;-62
2023/04/13 11:20:32;;;;;;;6.32;1.60;;;;;;;11.07;74.99;100237.16;5088450;28;20069;-61
2023/04/13 11:23:01;;;;;;;5.50;1.60;;;;;;;11.56;73.95;100234.66;5087866;28;20028;-62
2023/04/13 11:25:26;;;;;;;;;;;;;;;12.10;73.98;100243.13;5088602;28;20026;-62
2023/04/13 11:28:00;;;;;;;6.57;1.90;;;;;;;12.68;70.07;100225.06;5087808;28;19991;-62
2023/04/13 11:30:27;;;;;;;6.40;1.83;;;;;;;12.88;69.00;100235.47;5087479;28;20074;-62